sensor_id;sensor_type;location;lat;lon;timestamp;P1;durP1;ratioP1;P2;durP2;ratioP2
25467;SDS011;13384;24.794;110.498;2023-02-18T00:02:33;51.22;;;27.83;;
25467;SDS011;13384;24.794;110.498;2023-02-18T00:05:04;46.20;;;27.00;;
25467;SDS011;13384;24.794;110.498;2023-02-18T00:07:36;50.55;;;27.42;;
25467;SDS011;13384;24.794;110.498;2023-02-18T00:10:10;52.90;;;29.15;;
25467;SDS011;13384;24.794;110.498;2023-02-18T00:12:42;52.28;;;29.13;;
25467;SDS011;13384;24.794;110.498;2023-02-18T00:15:13;56.55;;;30.25;;
25467;SDS011;13384;24.794;110.498;2023-02-18T00:17:44;57.63;;;30.23;;
25467;SDS011;13384;24.794;110.498;2023-02-18T00:20:15;58.03;;;31.20;;
25467;SDS011;13384;24.794;110.498;2023-02-18T00:22:46;56.47;;;31.52;;
25467;SDS011;13384;24.794;110.498;2023-02-18T00:25:17;126.85;;;67.35;;
25467;SDS011;13384;24.794;110.498;2023-02-18T00:27:48;87.85;;;49.17;;
25467;SDS011;13384;24.794;110.498;2023-02-18T00:30:19;116.63;;;62.55;;
25467;SDS011;13384;24.794;110.498;2023-02-18T00:32:50;69.80;;;37.45;;
25467;SDS011;13384;24.794;110.498;2023-02-18T00:35:21;61.42;;;32.83;;
25467;SDS011;13384;24.794;110.498;2023-02-18T00:37:52;57.70;;;31.67;;
25467;SDS011;13384;24.794;110.498;2023-02-18T00:40:23;62.92;;;35.20;;
25467;SDS011;13384;24.794;110.498;2023-02-18T00:42:54;57.15;;;32.25;;
25467;SDS011;13384;24.794;110.498;2023-02-18T00:45:30;52.05;;;30.88;;
25467;SDS011;13384;24.794;110.498;2023-02-18T00:48:02;46.95;;;24.83;;
25467;SDS011;13384;24.794;110.498;2023-02-18T00:50:33;72.43;;;41.25;;
25467;SDS011;13384;24.794;110.498;2023-02-18T00:53:04;62.13;;;34.28;;
25467;SDS011;13384;24.794;110.498;2023-02-18T00:55:42;60.00;;;33.75;;
25467;SDS011;13384;24.794;110.498;2023-02-18T00:58:17;61.75;;;34.28;;
25467;SDS011;13384;24.794;110.498;2023-02-18T01:00:48;45.90;;;25.73;;
25467;SDS011;13384;24.794;110.498;2023-02-18T01:03:20;58.03;;;32.30;;
25467;SDS011;13384;24.794;110.498;2023-02-18T01:05:52;197.43;;;99.85;;
25467;SDS011;13384;24.794;110.498;2023-02-18T01:08:23;71.88;;;37.20;;
25467;SDS011;13384;24.794;110.498;2023-02-18T01:10:55;58.75;;;32.78;;
25467;SDS011;13384;24.794;110.498;2023-02-18T01:13:27;59.10;;;32.97;;
25467;SDS011;13384;24.794;110.498;2023-02-18T01:15:59;60.78;;;32.95;;
25467;SDS011;13384;24.794;110.498;2023-02-18T01:18:31;98.40;;;48.13;;
25467;SDS011;13384;24.794;110.498;2023-02-18T01:21:04;107.90;;;55.95;;
25467;SDS011;13384;24.794;110.498;2023-02-18T01:23:40;89.60;;;44.53;;
25467;SDS011;13384;24.794;110.498;2023-02-18T01:26:15;63.45;;;34.47;;
25467;SDS011;13384;24.794;110.498;2023-02-18T01:28:46;49.50;;;28.20;;
25467;SDS011;13384;24.794;110.498;2023-02-18T01:31:17;67.43;;;35.38;;
25467;SDS011;13384;24.794;110.498;2023-02-18T01:33:48;64.43;;;32.85;;
25467;SDS011;13384;24.794;110.498;2023-02-18T01:36:20;57.30;;;31.95;;
25467;SDS011;13384;24.794;110.498;2023-02-18T01:38:55;60.83;;;32.95;;
25467;SDS011;13384;24.794;110.498;2023-02-18T01:41:27;65.55;;;34.78;;
25467;SDS011;13384;24.794;110.498;2023-02-18T01:46:59;65.22;;;34.42;;
25467;SDS011;13384;24.794;110.498;2023-02-18T01:49:31;56.10;;;31.10;;
25467;SDS011;13384;24.794;110.498;2023-02-18T01:52:06;65.10;;;31.30;;
25467;SDS011;13384;24.794;110.498;2023-02-18T01:54:49;66.30;;;35.58;;
25467;SDS011;13384;24.794;110.498;2023-02-18T01:57:23;68.07;;;34.00;;
25467;SDS011;13384;24.794;110.498;2023-02-18T02:00:06;35.67;;;19.25;;
25467;SDS011;13384;24.794;110.498;2023-02-18T02:02:47;47.53;;;23.98;;
25467;SDS011;13384;24.794;110.498;2023-02-18T02:05:21;50.90;;;27.48;;
25467;SDS011;13384;24.794;110.498;2023-02-18T02:07:54;53.78;;;29.17;;
25467;SDS011;13384;24.794;110.498;2023-02-18T02:10:33;61.45;;;34.72;;
25467;SDS011;13384;24.794;110.498;2023-02-18T02:13:20;63.63;;;33.15;;
25467;SDS011;13384;24.794;110.498;2023-02-18T02:22:28;57.40;;;30.35;;
25467;SDS011;13384;24.794;110.498;2023-02-18T02:28:58;63.55;;;33.65;;
25467;SDS011;13384;24.794;110.498;2023-02-18T02:34:22;59.60;;;31.10;;
25467;SDS011;13384;24.794;110.498;2023-02-18T02:40:40;53.63;;;30.35;;
25467;SDS011;13384;24.794;110.498;2023-02-18T02:43:28;35.55;;;20.63;;
25467;SDS011;13384;24.794;110.498;2023-02-18T02:46:19;51.65;;;29.80;;
25467;SDS011;13384;24.794;110.498;2023-02-18T02:49:12;49.10;;;28.17;;
25467;SDS011;13384;24.794;110.498;2023-02-18T02:52:04;51.28;;;27.45;;
25467;SDS011;13384;24.794;110.498;2023-02-18T02:55:03;56.20;;;28.90;;
25467;SDS011;13384;24.794;110.498;2023-02-18T02:57:48;50.10;;;27.52;;
25467;SDS011;13384;24.794;110.498;2023-02-18T03:00:31;46.13;;;25.70;;
25467;SDS011;13384;24.794;110.498;2023-02-18T03:03:32;45.92;;;26.05;;
25467;SDS011;13384;24.794;110.498;2023-02-18T03:09:08;52.47;;;28.60;;
25467;SDS011;13384;24.794;110.498;2023-02-18T03:11:55;49.70;;;28.95;;
25467;SDS011;13384;24.794;110.498;2023-02-18T03:20:02;42.05;;;23.60;;
25467;SDS011;13384;24.794;110.498;2023-02-18T03:22:49;48.33;;;25.38;;
25467;SDS011;13384;24.794;110.498;2023-02-18T03:25:22;50.08;;;27.13;;
25467;SDS011;13384;24.794;110.498;2023-02-18T03:27:55;44.80;;;24.67;;
25467;SDS011;13384;24.794;110.498;2023-02-18T03:33:36;49.28;;;27.08;;
25467;SDS011;13384;24.794;110.498;2023-02-18T03:36:18;47.25;;;27.02;;
25467;SDS011;13384;24.794;110.498;2023-02-18T03:38:55;49.03;;;25.30;;
25467;SDS011;13384;24.794;110.498;2023-02-18T03:41:36;46.78;;;27.08;;
25467;SDS011;13384;24.794;110.498;2023-02-18T03:44:12;45.85;;;26.40;;
25467;SDS011;13384;24.794;110.498;2023-02-18T03:46:44;45.15;;;24.52;;
25467;SDS011;13384;24.794;110.498;2023-02-18T03:49:18;44.72;;;24.00;;
25467;SDS011;13384;24.794;110.498;2023-02-18T03:52:10;44.65;;;22.73;;
25467;SDS011;13384;24.794;110.498;2023-02-18T03:54:41;41.45;;;23.13;;
25467;SDS011;13384;24.794;110.498;2023-02-18T03:57:12;44.08;;;25.58;;
25467;SDS011;13384;24.794;110.498;2023-02-18T03:59:46;42.88;;;24.00;;
25467;SDS011;13384;24.794;110.498;2023-02-18T04:02:22;50.92;;;25.95;;
25467;SDS011;13384;24.794;110.498;2023-02-18T04:04:53;44.90;;;26.30;;
25467;SDS011;13384;24.794;110.498;2023-02-18T04:07:45;39.33;;;23.25;;
25467;SDS011;13384;24.794;110.498;2023-02-18T04:10:18;40.80;;;23.50;;
25467;SDS011;13384;24.794;110.498;2023-02-18T04:12:51;45.75;;;25.08;;
25467;SDS011;13384;24.794;110.498;2023-02-18T04:15:22;43.60;;;24.67;;
25467;SDS011;13384;24.794;110.498;2023-02-18T04:17:54;47.63;;;25.80;;
25467;SDS011;13384;24.794;110.498;2023-02-18T04:20:46;48.90;;;26.13;;
25467;SDS011;13384;24.794;110.498;2023-02-18T04:23:17;43.58;;;26.83;;
25467;SDS011;13384;24.794;110.498;2023-02-18T04:25:48;45.72;;;24.98;;
25467;SDS011;13384;24.794;110.498;2023-02-18T04:28:21;48.58;;;24.90;;
25467;SDS011;13384;24.794;110.498;2023-02-18T04:30:53;41.28;;;22.40;;
25467;SDS011;13384;24.794;110.498;2023-02-18T04:33:25;51.17;;;27.85;;
25467;SDS011;13384;24.794;110.498;2023-02-18T04:35:56;51.40;;;26.27;;
25467;SDS011;13384;24.794;110.498;2023-02-18T04:38:27;48.90;;;26.80;;
25467;SDS011;13384;24.794;110.498;2023-02-18T04:40:59;53.47;;;28.52;;
25467;SDS011;13384;24.794;110.498;2023-02-18T04:43:31;58.65;;;28.02;;
25467;SDS011;13384;24.794;110.498;2023-02-18T04:46:02;53.67;;;29.00;;
25467;SDS011;13384;24.794;110.498;2023-02-18T04:48:46;52.90;;;28.88;;
25467;SDS011;13384;24.794;110.498;2023-02-18T04:51:17;53.55;;;28.15;;
25467;SDS011;13384;24.794;110.498;2023-02-18T04:53:49;50.95;;;27.20;;
25467;SDS011;13384;24.794;110.498;2023-02-18T04:56:21;50.65;;;27.25;;
25467;SDS011;13384;24.794;110.498;2023-02-18T04:58:52;55.80;;;29.88;;
25467;SDS011;13384;24.794;110.498;2023-02-18T05:01:24;51.33;;;27.40;;
25467;SDS011;13384;24.794;110.498;2023-02-18T05:03:57;55.00;;;28.40;;
25467;SDS011;13384;24.794;110.498;2023-02-18T05:06:37;57.53;;;32.53;;
25467;SDS011;13384;24.794;110.498;2023-02-18T05:11:46;63.45;;;35.22;;
25467;SDS011;13384;24.794;110.498;2023-02-18T05:14:18;57.58;;;31.60;;
25467;SDS011;13384;24.794;110.498;2023-02-18T05:16:52;56.70;;;33.28;;
25467;SDS011;13384;24.794;110.498;2023-02-18T05:19:24;64.85;;;36.60;;
25467;SDS011;13384;24.794;110.498;2023-02-18T05:21:55;58.13;;;32.10;;
25467;SDS011;13384;24.794;110.498;2023-02-18T05:24:26;55.90;;;31.20;;
25467;SDS011;13384;24.794;110.498;2023-02-18T05:26:58;54.63;;;29.77;;
25467;SDS011;13384;24.794;110.498;2023-02-18T05:29:29;54.75;;;30.67;;
25467;SDS011;13384;24.794;110.498;2023-02-18T05:32:02;53.17;;;30.83;;
25467;SDS011;13384;24.794;110.498;2023-02-18T05:34:37;55.00;;;31.40;;
25467;SDS011;13384;24.794;110.498;2023-02-18T05:37:08;50.00;;;28.70;;
25467;SDS011;13384;24.794;110.498;2023-02-18T05:40:02;52.50;;;29.00;;
25467;SDS011;13384;24.794;110.498;2023-02-18T05:42:53;54.88;;;30.60;;
25467;SDS011;13384;24.794;110.498;2023-02-18T05:45:25;55.92;;;31.60;;
25467;SDS011;13384;24.794;110.498;2023-02-18T05:47:56;53.05;;;30.23;;
25467;SDS011;13384;24.794;110.498;2023-02-18T05:50:27;50.42;;;29.67;;
25467;SDS011;13384;24.794;110.498;2023-02-18T05:52:58;48.88;;;27.88;;
25467;SDS011;13384;24.794;110.498;2023-02-18T05:55:32;50.37;;;28.13;;
25467;SDS011;13384;24.794;110.498;2023-02-18T05:58:07;46.63;;;25.15;;
25467;SDS011;13384;24.794;110.498;2023-02-18T06:00:51;50.75;;;27.67;;
25467;SDS011;13384;24.794;110.498;2023-02-18T06:03:22;50.53;;;27.98;;
25467;SDS011;13384;24.794;110.498;2023-02-18T06:06:15;47.70;;;25.65;;
25467;SDS011;13384;24.794;110.498;2023-02-18T06:08:48;45.40;;;26.40;;
25467;SDS011;13384;24.794;110.498;2023-02-18T06:11:20;47.50;;;27.40;;
25467;SDS011;13384;24.794;110.498;2023-02-18T06:13:51;49.65;;;25.63;;
25467;SDS011;13384;24.794;110.498;2023-02-18T06:16:23;44.10;;;25.67;;
25467;SDS011;13384;24.794;110.498;2023-02-18T06:18:55;47.03;;;24.55;;
25467;SDS011;13384;24.794;110.498;2023-02-18T06:21:26;45.92;;;24.88;;
25467;SDS011;13384;24.794;110.498;2023-02-18T06:23:58;43.55;;;22.60;;
25467;SDS011;13384;24.794;110.498;2023-02-18T06:26:29;44.88;;;25.77;;
25467;SDS011;13384;24.794;110.498;2023-02-18T06:29:00;43.70;;;27.00;;
25467;SDS011;13384;24.794;110.498;2023-02-18T06:31:51;48.53;;;27.10;;
25467;SDS011;13384;24.794;110.498;2023-02-18T06:34:43;53.78;;;28.45;;
25467;SDS011;13384;24.794;110.498;2023-02-18T06:37:15;44.17;;;25.05;;
25467;SDS011;13384;24.794;110.498;2023-02-18T06:39:49;44.22;;;24.30;;
25467;SDS011;13384;24.794;110.498;2023-02-18T06:42:20;45.97;;;27.13;;
25467;SDS011;13384;24.794;110.498;2023-02-18T06:44:54;54.78;;;28.77;;
25467;SDS011;13384;24.794;110.498;2023-02-18T06:47:25;43.28;;;26.52;;
25467;SDS011;13384;24.794;110.498;2023-02-18T06:50:16;46.22;;;26.17;;
25467;SDS011;13384;24.794;110.498;2023-02-18T06:52:55;44.75;;;27.00;;
25467;SDS011;13384;24.794;110.498;2023-02-18T06:55:31;49.65;;;26.05;;
25467;SDS011;13384;24.794;110.498;2023-02-18T06:58:26;44.05;;;26.42;;
25467;SDS011;13384;24.794;110.498;2023-02-18T07:00:58;45.72;;;27.38;;
25467;SDS011;13384;24.794;110.498;2023-02-18T07:03:52;49.45;;;27.77;;
25467;SDS011;13384;24.794;110.498;2023-02-18T07:06:24;51.05;;;27.63;;
25467;SDS011;13384;24.794;110.498;2023-02-18T07:08:55;51.65;;;27.08;;
25467;SDS011;13384;24.794;110.498;2023-02-18T07:14:00;49.33;;;26.83;;
25467;SDS011;13384;24.794;110.498;2023-02-18T07:16:31;49.38;;;26.83;;
25467;SDS011;13384;24.794;110.498;2023-02-18T07:19:03;49.17;;;27.08;;
25467;SDS011;13384;24.794;110.498;2023-02-18T07:21:34;48.25;;;26.77;;
25467;SDS011;13384;24.794;110.498;2023-02-18T07:24:28;47.17;;;24.95;;
25467;SDS011;13384;24.794;110.498;2023-02-18T07:27:00;41.20;;;25.02;;
25467;SDS011;13384;24.794;110.498;2023-02-18T07:29:31;45.88;;;26.50;;
25467;SDS011;13384;24.794;110.498;2023-02-18T07:32:03;42.88;;;24.02;;
25467;SDS011;13384;24.794;110.498;2023-02-18T07:34:36;41.85;;;22.77;;
25467;SDS011;13384;24.794;110.498;2023-02-18T07:37:26;35.92;;;20.90;;
25467;SDS011;13384;24.794;110.498;2023-02-18T07:39:59;37.80;;;20.38;;
25467;SDS011;13384;24.794;110.498;2023-02-18T07:42:50;36.90;;;20.92;;
25467;SDS011;13384;24.794;110.498;2023-02-18T07:45:26;34.63;;;20.55;;
25467;SDS011;13384;24.794;110.498;2023-02-18T07:47:57;34.85;;;20.13;;
25467;SDS011;13384;24.794;110.498;2023-02-18T07:50:52;31.92;;;19.13;;
25467;SDS011;13384;24.794;110.498;2023-02-18T07:53:24;36.20;;;20.80;;
25467;SDS011;13384;24.794;110.498;2023-02-18T07:56:00;34.20;;;21.08;;
25467;SDS011;13384;24.794;110.498;2023-02-18T07:58:34;35.42;;;20.58;;
25467;SDS011;13384;24.794;110.498;2023-02-18T08:01:08;35.90;;;21.37;;
25467;SDS011;13384;24.794;110.498;2023-02-18T08:03:41;40.10;;;21.38;;
25467;SDS011;13384;24.794;110.498;2023-02-18T08:06:20;41.65;;;23.73;;
25467;SDS011;13384;24.794;110.498;2023-02-18T08:08:56;40.05;;;21.67;;
25467;SDS011;13384;24.794;110.498;2023-02-18T08:11:27;39.05;;;22.92;;
25467;SDS011;13384;24.794;110.498;2023-02-18T08:13:58;39.53;;;23.42;;
25467;SDS011;13384;24.794;110.498;2023-02-18T08:16:29;39.55;;;23.30;;
25467;SDS011;13384;24.794;110.498;2023-02-18T08:19:01;41.90;;;23.40;;
25467;SDS011;13384;24.794;110.498;2023-02-18T08:21:52;37.13;;;20.55;;
25467;SDS011;13384;24.794;110.498;2023-02-18T08:24:43;35.42;;;22.23;;
25467;SDS011;13384;24.794;110.498;2023-02-18T08:27:26;37.50;;;20.38;;
25467;SDS011;13384;24.794;110.498;2023-02-18T08:29:57;34.65;;;21.92;;
25467;SDS011;13384;24.794;110.498;2023-02-18T08:32:28;35.78;;;21.00;;
25467;SDS011;13384;24.794;110.498;2023-02-18T08:35:00;40.35;;;22.70;;
25467;SDS011;13384;24.794;110.498;2023-02-18T08:37:31;40.97;;;21.80;;
25467;SDS011;13384;24.794;110.498;2023-02-18T08:40:21;35.70;;;21.08;;
25467;SDS011;13384;24.794;110.498;2023-02-18T08:42:52;41.40;;;22.92;;
25467;SDS011;13384;24.794;110.498;2023-02-18T08:45:24;38.33;;;22.42;;
25467;SDS011;13384;24.794;110.498;2023-02-18T08:47:55;35.00;;;21.08;;
25467;SDS011;13384;24.794;110.498;2023-02-18T08:50:51;37.67;;;20.95;;
25467;SDS011;13384;24.794;110.498;2023-02-18T08:53:22;36.08;;;19.73;;
25467;SDS011;13384;24.794;110.498;2023-02-18T08:55:54;38.63;;;21.23;;
25467;SDS011;13384;24.794;110.498;2023-02-18T08:58:26;36.92;;;20.88;;
25467;SDS011;13384;24.794;110.498;2023-02-18T09:01:00;33.22;;;20.70;;
25467;SDS011;13384;24.794;110.498;2023-02-18T09:03:53;33.63;;;19.75;;
25467;SDS011;13384;24.794;110.498;2023-02-18T09:09:01;67.05;;;47.53;;
25467;SDS011;13384;24.794;110.498;2023-02-18T09:11:36;60.47;;;35.60;;
25467;SDS011;13384;24.794;110.498;2023-02-18T09:14:10;69.57;;;39.90;;
25467;SDS011;13384;24.794;110.498;2023-02-18T09:16:42;95.50;;;53.22;;
25467;SDS011;13384;24.794;110.498;2023-02-18T09:19:15;119.80;;;67.47;;
25467;SDS011;13384;24.794;110.498;2023-02-18T09:21:47;126.30;;;67.60;;
25467;SDS011;13384;24.794;110.498;2023-02-18T09:24:21;125.10;;;64.95;;
25467;SDS011;13384;24.794;110.498;2023-02-18T09:26:56;123.65;;;65.82;;
25467;SDS011;13384;24.794;110.498;2023-02-18T09:29:30;135.85;;;74.53;;
25467;SDS011;13384;24.794;110.498;2023-02-18T09:32:02;133.40;;;74.28;;
25467;SDS011;13384;24.794;110.498;2023-02-18T09:34:38;133.13;;;74.70;;
25467;SDS011;13384;24.794;110.498;2023-02-18T09:37:29;132.38;;;72.97;;
25467;SDS011;13384;24.794;110.498;2023-02-18T09:40:01;134.57;;;69.65;;
25467;SDS011;13384;24.794;110.498;2023-02-18T09:42:33;133.10;;;74.35;;
25467;SDS011;13384;24.794;110.498;2023-02-18T09:45:09;130.32;;;71.32;;
25467;SDS011;13384;24.794;110.498;2023-02-18T09:47:42;128.35;;;69.00;;
25467;SDS011;13384;24.794;110.498;2023-02-18T09:50:30;128.88;;;65.82;;
25467;SDS011;13384;24.794;110.498;2023-02-18T09:53:03;228.38;;;133.43;;
25467;SDS011;13384;24.794;110.498;2023-02-18T09:55:35;141.23;;;75.28;;
25467;SDS011;13384;24.794;110.498;2023-02-18T10:06:02;140.20;;;70.50;;
25467;SDS011;13384;24.794;110.498;2023-02-18T10:08:38;151.23;;;76.72;;
25467;SDS011;13384;24.794;110.498;2023-02-18T10:11:17;134.07;;;70.18;;
25467;SDS011;13384;24.794;110.498;2023-02-18T10:13:59;140.13;;;73.50;;
25467;SDS011;13384;24.794;110.498;2023-02-18T10:16:34;161.18;;;80.07;;
25467;SDS011;13384;24.794;110.498;2023-02-18T10:19:48;135.93;;;69.45;;
25467;SDS011;13384;24.794;110.498;2023-02-18T10:22:06;118.70;;;65.07;;
25467;SDS011;13384;24.794;110.498;2023-02-18T10:27:32;115.43;;;63.30;;
25467;SDS011;13384;24.794;110.498;2023-02-18T10:51:20;111.05;;;60.38;;
25467;SDS011;13384;24.794;110.498;2023-02-18T10:54:17;110.55;;;59.22;;
25467;SDS011;13384;24.794;110.498;2023-02-18T10:56:57;110.72;;;58.17;;
25467;SDS011;13384;24.794;110.498;2023-02-18T10:59:33;114.20;;;59.30;;
25467;SDS011;13384;24.794;110.498;2023-02-18T11:02:22;110.25;;;57.88;;
25467;SDS011;13384;24.794;110.498;2023-02-18T11:04:58;118.72;;;61.97;;
25467;SDS011;13384;24.794;110.498;2023-02-18T11:07:35;121.70;;;62.38;;
25467;SDS011;13384;24.794;110.498;2023-02-18T11:10:29;125.05;;;62.83;;
25467;SDS011;13384;24.794;110.498;2023-02-18T11:13:07;126.68;;;66.40;;
25467;SDS011;13384;24.794;110.498;2023-02-18T11:15:55;117.95;;;64.60;;
25467;SDS011;13384;24.794;110.498;2023-02-18T11:18:46;115.68;;;62.40;;
25467;SDS011;13384;24.794;110.498;2023-02-18T11:24:14;118.82;;;61.50;;
25467;SDS011;13384;24.794;110.498;2023-02-18T11:26:46;116.28;;;62.17;;
25467;SDS011;13384;24.794;110.498;2023-02-18T11:29:19;115.28;;;62.90;;
25467;SDS011;13384;24.794;110.498;2023-02-18T11:31:54;118.95;;;60.22;;
25467;SDS011;13384;24.794;110.498;2023-02-18T11:34:28;123.75;;;65.32;;
25467;SDS011;13384;24.794;110.498;2023-02-18T11:37:11;124.38;;;64.57;;
25467;SDS011;13384;24.794;110.498;2023-02-18T11:39:48;126.18;;;64.15;;
25467;SDS011;13384;24.794;110.498;2023-02-18T11:42:23;130.52;;;66.63;;
25467;SDS011;13384;24.794;110.498;2023-02-18T11:44:57;126.13;;;65.57;;
25467;SDS011;13384;24.794;110.498;2023-02-18T11:47:33;129.15;;;65.03;;
25467;SDS011;13384;24.794;110.498;2023-02-18T11:52:45;123.38;;;65.82;;
25467;SDS011;13384;24.794;110.498;2023-02-18T11:55:22;125.70;;;64.90;;
25467;SDS011;13384;24.794;110.498;2023-02-18T11:57:59;124.47;;;64.22;;
25467;SDS011;13384;24.794;110.498;2023-02-18T12:00:44;132.00;;;67.68;;
25467;SDS011;13384;24.794;110.498;2023-02-18T12:03:52;130.98;;;66.82;;
25467;SDS011;13384;24.794;110.498;2023-02-18T12:06:44;129.65;;;67.03;;
25467;SDS011;13384;24.794;110.498;2023-02-18T12:09:21;131.73;;;69.57;;
25467;SDS011;13384;24.794;110.498;2023-02-18T12:11:58;127.60;;;68.38;;
25467;SDS011;13384;24.794;110.498;2023-02-18T12:14:56;127.15;;;68.70;;
25467;SDS011;13384;24.794;110.498;2023-02-18T12:23:07;133.32;;;70.15;;
25467;SDS011;13384;24.794;110.498;2023-02-18T12:29:16;135.73;;;72.85;;
25467;SDS011;13384;24.794;110.498;2023-02-18T12:32:27;140.10;;;71.30;;
25467;SDS011;13384;24.794;110.498;2023-02-18T12:46:32;130.32;;;68.15;;
25467;SDS011;13384;24.794;110.498;2023-02-18T12:52:50;127.28;;;66.13;;
25467;SDS011;13384;24.794;110.498;2023-02-18T12:58:28;123.00;;;63.85;;
25467;SDS011;13384;24.794;110.498;2023-02-18T13:04:27;112.85;;;61.67;;
25467;SDS011;13384;24.794;110.498;2023-02-18T13:13:21;126.90;;;65.65;;
25467;SDS011;13384;24.794;110.498;2023-02-18T13:16:03;119.82;;;64.00;;
25467;SDS011;13384;24.794;110.498;2023-02-18T13:21:22;119.03;;;63.13;;
25467;SDS011;13384;24.794;110.498;2023-02-18T13:23:57;120.13;;;62.20;;
25467;SDS011;13384;24.794;110.498;2023-02-18T13:26:39;125.20;;;66.63;;
25467;SDS011;13384;24.794;110.498;2023-02-18T13:29:29;124.93;;;64.50;;
25467;SDS011;13384;24.794;110.498;2023-02-18T13:32:21;121.25;;;64.75;;
25467;SDS011;13384;24.794;110.498;2023-02-18T13:41:03;117.43;;;61.63;;
25467;SDS011;13384;24.794;110.498;2023-02-18T13:43:36;122.75;;;62.58;;
25467;SDS011;13384;24.794;110.498;2023-02-18T13:46:22;112.68;;;60.85;;
25467;SDS011;13384;24.794;110.498;2023-02-18T13:54:40;117.10;;;64.20;;
25467;SDS011;13384;24.794;110.498;2023-02-18T13:57:19;111.70;;;61.80;;
25467;SDS011;13384;24.794;110.498;2023-02-18T13:59:58;115.05;;;62.58;;
25467;SDS011;13384;24.794;110.498;2023-02-18T14:02:37;127.70;;;70.07;;
25467;SDS011;13384;24.794;110.498;2023-02-18T14:05:39;115.47;;;61.88;;
25467;SDS011;13384;24.794;110.498;2023-02-18T14:08:32;121.43;;;63.78;;
25467;SDS011;13384;24.794;110.498;2023-02-18T14:14:30;123.85;;;65.70;;
25467;SDS011;13384;24.794;110.498;2023-02-18T14:17:31;130.17;;;64.80;;
25467;SDS011;13384;24.794;110.498;2023-02-18T14:30:51;126.88;;;66.45;;
25467;SDS011;13384;24.794;110.498;2023-02-18T14:33:24;117.50;;;63.60;;
25467;SDS011;13384;24.794;110.498;2023-02-18T14:35:56;125.07;;;65.82;;
25467;SDS011;13384;24.794;110.498;2023-02-18T14:42:25;140.20;;;72.07;;
25467;SDS011;13384;24.794;110.498;2023-02-18T14:50:45;117.88;;;60.45;;
25467;SDS011;13384;24.794;110.498;2023-02-18T14:53:39;170.47;;;90.67;;
25467;SDS011;13384;24.794;110.498;2023-02-18T14:56:19;132.10;;;70.47;;
25467;SDS011;13384;24.794;110.498;2023-02-18T14:58:56;135.48;;;70.50;;
25467;SDS011;13384;24.794;110.498;2023-02-18T15:01:31;133.80;;;69.03;;
25467;SDS011;13384;24.794;110.498;2023-02-18T15:06:36;127.10;;;67.30;;
25467;SDS011;13384;24.794;110.498;2023-02-18T15:09:28;124.50;;;64.75;;
25467;SDS011;13384;24.794;110.498;2023-02-18T15:12:03;120.30;;;65.85;;
25467;SDS011;13384;24.794;110.498;2023-02-18T15:14:39;134.05;;;68.25;;
25467;SDS011;13384;24.794;110.498;2023-02-18T15:17:16;121.72;;;65.43;;
25467;SDS011;13384;24.794;110.498;2023-02-18T15:19:54;131.38;;;68.10;;
25467;SDS011;13384;24.794;110.498;2023-02-18T15:22:40;128.43;;;66.78;;
25467;SDS011;13384;24.794;110.498;2023-02-18T15:25:12;120.72;;;67.13;;
25467;SDS011;13384;24.794;110.498;2023-02-18T15:27:44;122.40;;;64.13;;
25467;SDS011;13384;24.794;110.498;2023-02-18T15:30:18;126.82;;;66.97;;
25467;SDS011;13384;24.794;110.498;2023-02-18T15:32:58;132.10;;;67.10;;
25467;SDS011;13384;24.794;110.498;2023-02-18T15:35:32;132.50;;;65.78;;
25467;SDS011;13384;24.794;110.498;2023-02-18T15:38:19;118.50;;;61.72;;
25467;SDS011;13384;24.794;110.498;2023-02-18T15:40:51;123.80;;;66.07;;
25467;SDS011;13384;24.794;110.498;2023-02-18T15:43:25;122.93;;;64.95;;
25467;SDS011;13384;24.794;110.498;2023-02-18T15:46:16;132.65;;;68.55;;
25467;SDS011;13384;24.794;110.498;2023-02-18T15:48:49;108.50;;;60.13;;
25467;SDS011;13384;24.794;110.498;2023-02-18T15:51:26;122.78;;;66.43;;
25467;SDS011;13384;24.794;110.498;2023-02-18T15:54:00;116.32;;;64.82;;
25467;SDS011;13384;24.794;110.498;2023-02-18T15:56:54;120.38;;;63.53;;
25467;SDS011;13384;24.794;110.498;2023-02-18T15:59:33;111.18;;;60.95;;
25467;SDS011;13384;24.794;110.498;2023-02-18T16:02:21;122.43;;;65.25;;
25467;SDS011;13384;24.794;110.498;2023-02-18T16:07:51;107.85;;;56.75;;
25467;SDS011;13384;24.794;110.498;2023-02-18T16:13:05;124.90;;;65.68;;
25467;SDS011;13384;24.794;110.498;2023-02-18T16:15:41;121.88;;;63.83;;
25467;SDS011;13384;24.794;110.498;2023-02-18T16:18:56;119.32;;;62.35;;
25467;SDS011;13384;24.794;110.498;2023-02-18T16:23:58;118.07;;;62.00;;
25467;SDS011;13384;24.794;110.498;2023-02-18T16:27:03;122.93;;;62.95;;
25467;SDS011;13384;24.794;110.498;2023-02-18T16:29:43;119.30;;;64.68;;
25467;SDS011;13384;24.794;110.498;2023-02-18T16:32:17;111.88;;;60.60;;
25467;SDS011;13384;24.794;110.498;2023-02-18T16:35:02;121.50;;;63.70;;
25467;SDS011;13384;24.794;110.498;2023-02-18T16:37:33;117.85;;;61.05;;
25467;SDS011;13384;24.794;110.498;2023-02-18T16:43:14;120.53;;;60.90;;
25467;SDS011;13384;24.794;110.498;2023-02-18T16:45:50;110.53;;;58.17;;
25467;SDS011;13384;24.794;110.498;2023-02-18T16:48:42;107.65;;;59.72;;
25467;SDS011;13384;24.794;110.498;2023-02-18T16:51:29;107.78;;;59.80;;
25467;SDS011;13384;24.794;110.498;2023-02-18T16:54:03;111.15;;;59.78;;
25467;SDS011;13384;24.794;110.498;2023-02-18T16:56:35;112.93;;;61.15;;
25467;SDS011;13384;24.794;110.498;2023-02-18T16:59:06;107.38;;;59.67;;
25467;SDS011;13384;24.794;110.498;2023-02-18T17:01:39;109.13;;;60.95;;
25467;SDS011;13384;24.794;110.498;2023-02-18T17:04:18;117.07;;;60.85;;
25467;SDS011;13384;24.794;110.498;2023-02-18T17:06:58;114.72;;;60.45;;
25467;SDS011;13384;24.794;110.498;2023-02-18T17:09:33;113.57;;;60.88;;
25467;SDS011;13384;24.794;110.498;2023-02-18T17:12:05;111.68;;;60.20;;
25467;SDS011;13384;24.794;110.498;2023-02-18T17:14:36;115.28;;;60.47;;
25467;SDS011;13384;24.794;110.498;2023-02-18T17:17:12;114.20;;;61.60;;
25467;SDS011;13384;24.794;110.498;2023-02-18T17:19:43;114.07;;;59.20;;
25467;SDS011;13384;24.794;110.498;2023-02-18T17:22:14;116.55;;;60.22;;
25467;SDS011;13384;24.794;110.498;2023-02-18T17:24:45;104.45;;;55.05;;
25467;SDS011;13384;24.794;110.498;2023-02-18T17:27:16;102.43;;;54.97;;
25467;SDS011;13384;24.794;110.498;2023-02-18T17:29:48;112.78;;;59.90;;
25467;SDS011;13384;24.794;110.498;2023-02-18T17:32:32;107.53;;;59.70;;
25467;SDS011;13384;24.794;110.498;2023-02-18T17:35:03;105.65;;;58.53;;